Hwy 51 at Exposition Atmospheric Data: 11/28/2020 Summary  Detailed Graphs  Station List

  Temperature     Wind Precipitation Visibility
Timestamp Air Wet
Bulb
Dew-
point
24-hr
Max
24-hr
Min
Relative
Humidity
Atmospheric
Pressure
Avg
Speed
Avg
Dir
Spot
Speed
Spot
Dir
Max
Speed
Max
Dir
  Rate Situation Start End 1 hr 3 hr 6 hr 12 hr 24 hr   Situation
Date Time °F °F °F °F °F % in Hg mph ° mph ° mph ° Y/N in/hr text Date Time Date Time in in in in in mi text
11/28/2020 12:14 AM 40.10 37.22 33.44 62.24 34.70 77.0 Not Reported 0.22 SE 0.00 SW 1.57 SE No 0.000 No Precipitation 11/18/2020 02:19 PM 11/18/2020 02:24 PM 0.000 0.000 0.000 0.000 0.000 3.56 Clear
11/28/2020 12:29 AM 41.00 37.40 32.54 62.24 34.70 72.0 Not Reported 0.45 NE 1.12 NE 0.45 NE No 0.000 No Precipitation 11/18/2020 02:19 PM 11/18/2020 02:24 PM 0.000 0.000 0.000 0.000 0.000 3.51 Clear
11/28/2020 12:44 AM 41.00 37.40 32.54 62.24 34.70 72.0 Not Reported 1.57 NE 1.34 N 2.24 N No 0.000 No Precipitation 11/18/2020 02:19 PM 11/18/2020 02:24 PM 0.000 0.000 0.000 0.000 0.000 3.70 Clear
11/28/2020 12:59 AM 41.18 37.58 32.72 62.24 34.70 72.0 Not Reported 1.12 NE 1.57 NE 1.79 NE No 0.000 No Precipitation 11/18/2020 02:19 PM 11/18/2020 02:24 PM 0.000 0.000 0.000 0.000 0.000 3.46 Clear
11/28/2020 01:14 AM 39.92 36.68 32.54 62.24 34.70 75.0 Not Reported 1.79 N 2.01 N 2.68 N No 0.000 No Precipitation 11/18/2020 02:19 PM 11/18/2020 02:24 PM 0.000 0.000 0.000 0.000 0.000 3.03 Clear
11/28/2020 01:29 AM 40.10 37.04 33.08 62.24 34.70 76.0 Not Reported 0.89 N 2.24 N 2.68 N No 0.000 No Precipitation 11/18/2020 02:19 PM 11/18/2020 02:24 PM 0.000 0.000 0.000 0.000 0.000 2.73 Clear
11/28/2020 01:44 AM 39.56 36.50 32.54 62.24 34.70 76.0 Not Reported 2.46 N 2.01 N 2.68 N No 0.000 No Precipitation 11/18/2020 02:19 PM 11/18/2020 02:24 PM 0.000 0.000 0.000 0.000 0.000 2.57 Clear
11/28/2020 01:59 AM 39.38 36.50 32.72 62.24 34.70 77.0 Not Reported 2.68 N 2.68 N 2.46 N No 0.000 No Precipitation 11/18/2020 02:19 PM 11/18/2020 02:24 PM 0.000 0.000 0.000 0.000 0.000 2.75 Clear
11/28/2020 02:14 AM 38.66 36.14 32.72 62.24 34.70 79.0 Not Reported 4.03 N 4.70 N 3.80 N No 0.000 No Precipitation 11/18/2020 02:19 PM 11/18/2020 02:24 PM 0.000 0.000 0.000 0.000 0.000 2.51 Clear
11/28/2020 02:29 AM 38.30 35.96 32.90 62.24 34.70 81.0 Not Reported 4.25 N 3.80 N 4.70 N No 0.000 No Precipitation 11/18/2020 02:19 PM 11/18/2020 02:24 PM 0.000 0.000 0.000 0.000 0.000 2.59 Clear
11/28/2020 02:44 AM 37.94 35.96 33.08 62.24 34.70 83.0 Not Reported 3.36 N 3.58 N 4.70 N No 0.000 No Precipitation 11/18/2020 02:19 PM 11/18/2020 02:24 PM 0.000 0.000 0.000 0.000 0.000 2.83 Clear
11/28/2020 02:59 AM 38.12 36.14 33.62 62.24 34.70 84.0 Not Reported 2.24 N 2.46 N 3.80 N No 0.000 No Precipitation 11/18/2020 02:19 PM 11/18/2020 02:24 PM 0.000 0.000 0.000 0.000 0.000 3.06 Clear
11/28/2020 03:14 AM 38.12 36.14 33.62 62.24 34.70 84.0 Not Reported 2.24 N 2.46 N 2.24 N No 0.000 No Precipitation 11/18/2020 02:19 PM 11/18/2020 02:24 PM 0.000 0.000 0.000 0.000 0.000 3.37 Clear
11/28/2020 03:29 AM 37.94 36.14 33.80 62.24 34.70 85.0 Not Reported 3.58 N 3.36 N 3.58 NE No 0.000 No Precipitation 11/18/2020 02:19 PM 11/18/2020 02:24 PM 0.000 0.000 0.000 0.000 0.000 3.66 Clear
11/28/2020 03:44 AM 37.58 35.96 33.98 62.24 34.70 87.0 Not Reported 2.24 N 3.36 N 4.03 N No 0.000 No Precipitation 11/18/2020 02:19 PM 11/18/2020 02:24 PM 0.000 0.000 0.000 0.000 0.000 2.61 Clear
11/28/2020 03:59 AM 37.40 36.14 34.34 62.24 34.70 89.0 Not Reported 3.36 N 3.36 N 4.47 N No 0.000 No Precipitation 11/18/2020 02:19 PM 11/18/2020 02:24 PM 0.000 0.000 0.000 0.000 0.000 3.26 Clear
11/28/2020 04:14 AM 37.94 36.32 34.88 62.24 34.70 89.0 Not Reported 2.91 NE 1.57 NE 4.25 NE No 0.000 No Precipitation 11/18/2020 02:19 PM 11/18/2020 02:24 PM 0.000 0.000 0.000 0.000 0.000 3.81 Clear
11/28/2020 04:29 AM 37.94 36.68 35.24 62.24 34.70 90.0 Not Reported 0.45 NE 0.89 N 3.58 NE No 0.000 No Precipitation 11/18/2020 02:19 PM 11/18/2020 02:24 PM 0.000 0.000 0.000 0.000 0.000 2.86 Clear
11/28/2020 04:44 AM 37.40 36.32 34.88 62.24 34.70 91.0 Not Reported 1.57 N 1.57 NE 2.24 N No 0.000 No Precipitation 11/18/2020 02:19 PM 11/18/2020 02:24 PM 0.000 0.000 0.000 0.000 0.000 1.83 Clear
11/28/2020 04:59 AM 37.40 36.32 34.88 62.24 34.70 91.0 Not Reported 1.12 NE 0.00 N 1.79 N No 0.000 No Precipitation 11/18/2020 02:19 PM 11/18/2020 02:24 PM 0.000 0.000 0.000 0.000 0.000 3.47 Clear
11/28/2020 05:14 AM 37.40 36.32 34.88 62.24 34.70 91.0 Not Reported 0.45 NE 0.89 NE 0.45 N No 0.000 No Precipitation 11/18/2020 02:19 PM 11/18/2020 02:24 PM 0.000 0.000 0.000 0.000 0.000 4.04 Clear
11/28/2020 05:29 AM 37.58 36.50 35.06 62.24 34.70 91.0 Not Reported 0.00 N 0.00 NE 1.34 NE No 0.000 No Precipitation 11/18/2020 02:19 PM 11/18/2020 02:24 PM 0.000 0.000 0.000 0.000 0.000 4.07 Clear
11/28/2020 05:44 AM 37.22 36.14 34.70 62.24 34.70 91.0 Not Reported 0.00 N 0.00 N 2.01 N No 0.000 No Precipitation 11/18/2020 02:19 PM 11/18/2020 02:24 PM 0.000 0.000 0.000 0.000 0.000 3.74 Clear
11/28/2020 05:59 AM 37.04 35.96 34.52 62.24 34.70 91.0 Not Reported 1.57 N 1.79 N 1.57 N No 0.000 No Precipitation 11/18/2020 02:19 PM 11/18/2020 02:24 PM 0.000 0.000 0.000 0.000 0.000 3.36 Clear
11/28/2020 06:14 AM 36.86 35.78 34.70 62.24 34.70 92.0 Not Reported 1.57 N 1.79 N 1.79 N No 0.000 No Precipitation 11/18/2020 02:19 PM 11/18/2020 02:24 PM 0.000 0.000 0.000 0.000 0.000 3.41 Clear
11/28/2020 06:29 AM 35.78 34.88 33.80 62.24 34.70 93.0 Not Reported 4.03 N 4.25 N 3.13 N No 0.000 No Precipitation 11/18/2020 02:19 PM 11/18/2020 02:24 PM 0.000 0.000 0.000 0.000 0.000 1.49 Clear
11/28/2020 06:44 AM 35.42 34.52 33.44 62.24 34.70 93.0 Not Reported 4.03 N 4.47 N 5.14 N No 0.000 No Precipitation 11/18/2020 02:19 PM 11/18/2020 02:24 PM 0.000 0.000 0.000 0.000 0.000 1.99 Clear
11/28/2020 06:59 AM 35.24 34.34 33.08 62.24 34.70 92.0 Not Reported 3.80 N 4.25 N 5.82 N No 0.000 No Precipitation 11/18/2020 02:19 PM 11/18/2020 02:24 PM 0.000 0.000 0.000 0.000 0.000 3.05 Clear
11/28/2020 07:14 AM 36.14 35.06 33.62 62.24 34.70 91.0 Not Reported 2.24 NE 3.36 NE 4.47 N No 0.000 No Precipitation 11/18/2020 02:19 PM 11/18/2020 02:24 PM 0.000 0.000 0.000 0.000 0.000 3.25 Clear
11/28/2020 07:29 AM 36.86 35.60 33.80 62.24 34.70 89.0 Not Reported 2.68 NE 2.46 NE 3.80 NE No 0.000 No Precipitation 11/18/2020 02:19 PM 11/18/2020 02:24 PM 0.000 0.000 0.000 0.000 0.000 3.23 Clear
11/28/2020 07:44 AM 38.66 36.86 34.52 62.24 34.70 85.0 Not Reported 2.24 NE 2.46 NE 2.68 NE No 0.000 No Precipitation 11/18/2020 02:19 PM 11/18/2020 02:24 PM 0.000 0.000 0.000 0.000 0.000 3.18 Clear
11/28/2020 07:59 AM 39.20 37.04 34.34 62.24 34.70 83.0 Not Reported 2.24 N 2.68 NE 3.58 NE No 0.000 No Precipitation 11/18/2020 02:19 PM 11/18/2020 02:24 PM 0.000 0.000 0.000 0.000 0.000 3.36 Clear
11/28/2020 08:14 AM 39.92 37.58 34.52 62.24 34.70 81.0 Not Reported 2.91 N 3.13 NE 4.25 N No 0.000 No Precipitation 11/18/2020 02:19 PM 11/18/2020 02:24 PM 0.000 0.000 0.000 0.000 0.000 3.14 Clear
11/28/2020 08:29 AM 41.36 38.48 34.88 62.24 34.70 78.0 Not Reported 3.36 N 2.24 NE 4.47 NE No 0.000 No Precipitation 11/18/2020 02:19 PM 11/18/2020 02:24 PM 0.000 0.000 0.000 0.000 0.000 3.33 Clear
11/28/2020 08:44 AM 43.52 39.92 35.78 62.24 34.70 74.0 Not Reported 4.03 NE 4.47 NE 3.58 N No 0.000 No Precipitation 11/18/2020 02:19 PM 11/18/2020 02:24 PM 0.000 0.000 0.000 0.000 0.000 3.64 Clear
11/28/2020 08:59 AM 45.32 41.18 36.32 62.24 34.70 71.0 Not Reported 2.46 NE 3.80 NE 4.92 N No 0.000 No Precipitation 11/18/2020 02:19 PM 11/18/2020 02:24 PM 0.000 0.000 0.000 0.000 0.000 3.50 Clear
11/28/2020 09:14 AM 46.04 41.72 36.68 62.24 34.70 70.0 Not Reported 3.58 N 3.80 N 6.04 NE No 0.000 No Precipitation 11/18/2020 02:19 PM 11/18/2020 02:24 PM 0.000 0.000 0.000 0.000 0.000 3.75 Clear
11/28/2020 09:29 AM 47.12 42.26 36.68 62.24 34.70 67.0 Not Reported 2.68 NE 2.01 NE 4.47 NE No 0.000 No Precipitation 11/18/2020 02:19 PM 11/18/2020 02:24 PM 0.000 0.000 0.000 0.000 0.000 4.01 Clear
11/28/2020 09:44 AM 49.28 43.52 37.22 62.24 34.70 63.0 Not Reported 1.79 E 0.45 S 3.58 N No 0.000 No Precipitation 11/18/2020 02:19 PM 11/18/2020 02:24 PM 0.000 0.000 0.000 0.000 0.000 4.29 Clear
11/28/2020 09:59 AM 50.54 44.42 37.94 62.24 34.70 62.0 Not Reported 1.79 NE 2.68 NE 3.58 NE No 0.000 No Precipitation 11/18/2020 02:19 PM 11/18/2020 02:24 PM 0.000 0.000 0.000 0.000 0.000 4.44 Clear
11/28/2020 10:14 AM 51.44 45.14 38.30 62.24 34.70 61.0 Not Reported 0.89 N 0.22 NE 4.03 NE No 0.000 No Precipitation 11/18/2020 02:19 PM 11/18/2020 02:24 PM 0.000 0.000 0.000 0.000 0.000 3.61 Clear
11/28/2020 10:29 AM 52.70 45.50 37.76 62.24 34.70 57.0 Not Reported 1.79 N 3.80 NE 3.80 N No 0.000 No Precipitation 11/18/2020 02:19 PM 11/18/2020 02:24 PM 0.000 0.000 0.000 0.000 0.000 4.58 Clear
11/28/2020 10:44 AM 52.88 45.50 37.58 62.24 34.70 56.0 Not Reported 0.00 W 0.45 NE 2.91 NE No 0.000 No Precipitation 11/18/2020 02:19 PM 11/18/2020 02:24 PM 0.000 0.000 0.000 0.000 0.000 3.94 Clear
11/28/2020 10:59 AM 54.50 46.40 37.58 62.24 34.70 53.0 Not Reported 1.79 NE 1.79 N 4.25 N No 0.000 No Precipitation 11/18/2020 02:19 PM 11/18/2020 02:24 PM 0.000 0.000 0.000 0.000 0.000 4.07 Clear
11/28/2020 11:14 AM 54.86 46.22 37.04 62.24 34.70 51.0 Not Reported 3.80 N 3.80 NE 4.03 N No 0.000 No Precipitation 11/18/2020 02:19 PM 11/18/2020 02:24 PM 0.000 0.000 0.000 0.000 0.000 4.66 Clear
11/28/2020 11:29 AM 55.76 46.94 37.76 62.24 34.70 51.0 Not Reported 4.70 NE 3.80 NE 4.92 N No 0.000 No Precipitation 11/18/2020 02:19 PM 11/18/2020 02:24 PM 0.000 0.000 0.000 0.000 0.000 4.66 Clear
11/28/2020 11:44 AM 56.30 46.76 36.86 62.24 34.70 48.0 Not Reported 5.82 N 5.59 NE 7.38 NE No 0.000 No Precipitation 11/18/2020 02:19 PM 11/18/2020 02:24 PM 0.000 0.000 0.000 0.000 0.000 4.66 Clear
11/28/2020 11:59 AM 57.56 47.30 36.32 62.24 34.70 45.0 Not Reported 5.14 NE 6.04 NE 7.16 N No 0.000 No Precipitation 11/18/2020 02:19 PM 11/18/2020 02:24 PM 0.000 0.000 0.000 0.000 0.000 4.66 Clear
11/28/2020 12:14 PM 57.92 47.30 36.14 62.24 34.70 44.0 Not Reported 4.70 N 6.71 N 8.05 N No 0.000 No Precipitation 11/18/2020 02:19 PM 11/18/2020 02:24 PM 0.000 0.000 0.000 0.000 0.000 4.66 Clear
11/28/2020 12:29 PM 58.46 47.48 35.96 62.24 34.70 43.0 Not Reported 6.04 N 2.68 NE 7.16 N No 0.000 No Precipitation 11/18/2020 02:19 PM 11/18/2020 02:24 PM 0.000 0.000 0.000 0.000 0.000 4.66 Clear
11/28/2020 12:44 PM 59.18 47.48 34.88 62.24 34.70 40.0 Not Reported 5.37 NE 7.61 NE 8.28 N No 0.000 No Precipitation 11/18/2020 02:19 PM 11/18/2020 02:24 PM 0.000 0.000 0.000 0.000 0.000 4.66 Clear
11/28/2020 12:59 PM 59.18 47.30 34.16 62.24 34.70 39.0 Not Reported 7.38 NE 9.40 N 8.28 N No 0.000 No Precipitation 11/18/2020 02:19 PM 11/18/2020 02:24 PM 0.000 0.000 0.000 0.000 0.000 4.66 Clear
11/28/2020 01:14 PM 59.54 47.30 33.80 62.24 34.70 38.0 Not Reported 10.51 N 8.05 N 9.84 N No 0.000 No Precipitation 11/18/2020 02:19 PM 11/18/2020 02:24 PM 0.000 0.000 0.000 0.000 0.000 4.66 Clear
11/28/2020 01:29 PM 60.08 47.66 34.34 62.24 34.70 38.0 Not Reported 7.61 NE 9.17 N 10.96 N No 0.000 No Precipitation 11/18/2020 02:19 PM 11/18/2020 02:24 PM 0.000 0.000 0.000 0.000 0.000 4.66 Clear
11/28/2020 01:44 PM 61.34 48.56 34.70 62.24 34.70 37.0 Not Reported 6.26 N 4.92 N 10.51 NE No 0.000 No Precipitation 11/18/2020 02:19 PM 11/18/2020 02:24 PM 0.000 0.000 0.000 0.000 0.000 4.05 Clear
11/28/2020 01:59 PM 60.98 48.20 34.52 62.24 34.70 37.0 Not Reported 6.04 NE 4.03 NE 8.50 N No 0.000 No Precipitation 11/18/2020 02:19 PM 11/18/2020 02:24 PM 0.000 0.000 0.000 0.000 0.000 4.17 Clear
11/28/2020 02:14 PM 61.52 48.38 34.34 62.24 34.70 36.0 Not Reported 7.38 NE 7.61 NE 10.51 NE No 0.000 No Precipitation 11/18/2020 02:19 PM 11/18/2020 02:24 PM 0.000 0.000 0.000 0.000 0.000 4.66 Clear
11/28/2020 02:29 PM 61.52 48.56 34.88 62.24 34.70 37.0 Not Reported 5.82 NE 5.14 E 9.62 N No 0.000 No Precipitation 11/18/2020 02:19 PM 11/18/2020 02:24 PM 0.000 0.000 0.000 0.000 0.000 4.66 Clear
11/28/2020 02:44 PM 62.24 48.74 34.16 62.24 34.70 35.0 Not Reported 5.59 NE 6.26 N 9.17 N No 0.000 No Precipitation 11/18/2020 02:19 PM 11/18/2020 02:24 PM 0.000 0.000 0.000 0.000 0.000 4.55 Clear
11/28/2020 02:59 PM 62.24 48.74 34.16 62.24 34.70 35.0 Not Reported 6.71 NE 6.49 NE 7.83 NE No 0.000 No Precipitation 11/18/2020 02:19 PM 11/18/2020 02:24 PM 0.000 0.000 0.000 0.000 0.000 4.66 Clear
11/28/2020 03:14 PM 62.96 49.10 34.16 62.24 34.70 34.0 Not Reported 4.70 NE 5.59 NE 7.83 N No 0.000 No Precipitation 11/18/2020 02:19 PM 11/18/2020 02:24 PM 0.000 0.000 0.000 0.000 0.000 4.58 Clear
11/28/2020 03:29 PM 62.96 49.28 34.88 62.24 34.70 35.0 Not Reported 3.36 N 4.03 NE 6.04 SE No 0.000 No Precipitation 11/18/2020 02:19 PM 11/18/2020 02:24 PM 0.000 0.000 0.000 0.000 0.000 4.66 Clear
11/28/2020 03:44 PM 62.06 48.74 34.70 62.24 34.70 36.0 Not Reported 4.92 NE 3.58 N 6.93 N No 0.000 No Precipitation 11/18/2020 02:19 PM 11/18/2020 02:24 PM 0.000 0.000 0.000 0.000 0.000 4.66 Clear
11/28/2020 03:59 PM 62.06 48.74 34.70 62.24 34.70 36.0 Not Reported 5.37 N 2.24 N 5.82 NE No 0.000 No Precipitation 11/18/2020 02:19 PM 11/18/2020 02:24 PM 0.000 0.000 0.000 0.000 0.000 4.66 Clear
11/28/2020 04:14 PM 61.88 48.92 35.24 63.32 35.24 37.0 Not Reported 2.91 NE 2.68 N 4.70 NE No 0.000 No Precipitation 11/18/2020 02:19 PM 11/18/2020 02:24 PM 0.000 0.000 0.000 0.000 0.000 4.66 Clear
11/28/2020 04:29 PM 61.52 48.56 34.88 63.32 35.24 37.0 Not Reported 2.01 N 2.91 NE 3.80 N No 0.000 No Precipitation 11/18/2020 02:19 PM 11/18/2020 02:24 PM 0.000 0.000 0.000 0.000 0.000 4.66 Clear
11/28/2020 04:44 PM 60.26 48.02 35.06 63.32 35.24 39.0 Not Reported 1.34 NE 1.34 N 2.91 NE No 0.000 No Precipitation 11/18/2020 02:19 PM 11/18/2020 02:24 PM 0.000 0.000 0.000 0.000 0.000 4.66 Clear
11/28/2020 04:59 PM 59.36 47.84 35.60 63.32 35.24 41.0 Not Reported 1.34 NE 0.67 W 2.01 N No 0.000 No Precipitation 11/18/2020 02:19 PM 11/18/2020 02:24 PM 0.000 0.000 0.000 0.000 0.000 4.24 Clear
11/28/2020 05:14 PM 58.64 47.48 35.60 63.32 35.24 42.0 Not Reported 2.24 NE 2.68 NE 3.13 N No 0.000 No Precipitation 11/18/2020 02:19 PM 11/18/2020 02:24 PM 0.000 0.000 0.000 0.000 0.000 2.69 Clear
11/28/2020 05:29 PM 58.10 47.30 35.60 63.32 35.24 43.0 Not Reported 2.24 NE 1.57 NE 3.36 NE No 0.000 No Precipitation 11/18/2020 02:19 PM 11/18/2020 02:24 PM 0.000 0.000 0.000 0.000 0.000 3.55 Clear
11/28/2020 05:44 PM 57.56 47.12 35.78 63.32 35.24 44.0 Not Reported 1.57 NE 3.13 NE 3.13 NE No 0.000 No Precipitation 11/18/2020 02:19 PM 11/18/2020 02:24 PM 0.000 0.000 0.000 0.000 0.000 3.78 Clear
11/28/2020 05:59 PM 56.30 46.40 35.78 63.32 35.24 46.0 Not Reported 2.46 NE 0.45 E 4.25 NE No 0.000 No Precipitation 11/18/2020 02:19 PM 11/18/2020 02:24 PM 0.000 0.000 0.000 0.000 0.000 3.31 Clear
11/28/2020 06:14 PM 52.88 45.14 36.68 63.32 35.24 54.0 Not Reported 0.00 NW 0.22 W 0.89 W No 0.000 No Precipitation 11/18/2020 02:19 PM 11/18/2020 02:24 PM 0.000 0.000 0.000 0.000 0.000 3.91 Clear
11/28/2020 06:29 PM 54.14 45.86 36.86 63.32 35.24 52.0 Not Reported 1.57 NE 1.57 NE 2.46 SW No 0.000 No Precipitation 11/18/2020 02:19 PM 11/18/2020 02:24 PM 0.000 0.000 0.000 0.000 0.000 2.87 Clear
11/28/2020 06:44 PM 52.88 45.14 36.68 63.32 35.24 54.0 Not Reported 0.00 NW 0.00 SW 2.01 NE No 0.000 No Precipitation 11/18/2020 02:19 PM 11/18/2020 02:24 PM 0.000 0.000 0.000 0.000 0.000 3.50 Clear
11/28/2020 06:59 PM 48.56 43.34 37.58 63.32 35.24 66.0 Not Reported 0.00 N 0.00 SW 1.12 W No 0.000 No Precipitation 11/18/2020 02:19 PM 11/18/2020 02:24 PM 0.000 0.000 0.000 0.000 0.000 3.68 Clear
11/28/2020 07:14 PM 48.92 43.34 37.22 63.32 35.24 64.0 Not Reported 0.00 W 0.00 SW 0.00 SW No 0.000 No Precipitation 11/18/2020 02:19 PM 11/18/2020 02:24 PM 0.000 0.000 0.000 0.000 0.000 3.28 Clear
11/28/2020 07:29 PM 51.26 44.42 36.86 63.32 35.24 58.0 Not Reported 0.67 NE 2.24 SE 1.79 SW No 0.000 No Precipitation 11/18/2020 02:19 PM 11/18/2020 02:24 PM 0.000 0.000 0.000 0.000 0.000 3.50 Clear
11/28/2020 07:44 PM 48.38 42.80 37.40 63.32 35.24 66.0 Not Reported 1.34 W 0.45 W 2.46 SW No 0.000 No Precipitation 11/18/2020 02:19 PM 11/18/2020 02:24 PM 0.000 0.000 0.000 0.000 0.000 3.25 Clear
11/28/2020 07:59 PM 49.64 43.52 36.68 63.32 35.24 61.0 Not Reported 0.45 NW 0.45 NE 2.68 SW No 0.000 No Precipitation 11/18/2020 02:19 PM 11/18/2020 02:24 PM 0.000 0.000 0.000 0.000 0.000 3.32 Clear
11/28/2020 08:14 PM 48.38 42.80 36.68 63.32 35.24 64.0 Not Reported 0.00 N 0.00 NW 0.89 N No 0.000 No Precipitation 11/18/2020 02:19 PM 11/18/2020 02:24 PM 0.000 0.000 0.000 0.000 0.000 3.09 Clear
11/28/2020 08:29 PM 49.10 43.34 37.04 63.32 35.24 63.0 Not Reported 1.12 NW 1.12 NW 2.01 NW No 0.000 No Precipitation 11/18/2020 02:19 PM 11/18/2020 02:24 PM 0.000 0.000 0.000 0.000 0.000 2.84 Clear
11/28/2020 08:44 PM 45.14 41.54 37.58 63.32 35.24 75.0 Not Reported 0.22 SW 0.00 SW 1.12 SW No 0.000 No Precipitation 11/18/2020 02:19 PM 11/18/2020 02:24 PM 0.000 0.000 0.000 0.000 0.000 3.32 Clear
11/28/2020 08:59 PM 43.88 40.64 36.68 63.32 35.24 76.0 Not Reported 0.45 SW 0.00 SW 1.79 W No 0.000 No Precipitation 11/18/2020 02:19 PM 11/18/2020 02:24 PM 0.000 0.000 0.000 0.000 0.000 2.28 Clear
11/28/2020 09:14 PM 43.88 40.64 36.68 63.32 35.24 76.0 Not Reported 0.00 N 0.00 S 0.67 NE No 0.000 No Precipitation 11/18/2020 02:19 PM 11/18/2020 02:24 PM 0.000 0.000 0.000 0.000 0.000 2.32 Clear
11/28/2020 09:29 PM 43.16 40.10 36.68 63.32 35.24 78.0 Not Reported 0.00 N 0.89 S 0.00 S No 0.000 No Precipitation 11/18/2020 02:19 PM 11/18/2020 02:24 PM 0.000 0.000 0.000 0.000 0.000 2.64 Clear
11/28/2020 09:44 PM 40.64 39.02 37.04 63.32 35.24 87.0 Not Reported 0.89 S 0.67 SE 2.68 S No 0.000 No Precipitation 11/18/2020 02:19 PM 11/18/2020 02:24 PM 0.000 0.000 0.000 0.000 0.000 1.56 Clear
11/28/2020 09:59 PM 42.08 39.74 37.22 63.32 35.24 83.0 Not Reported 1.34 SE 0.00 SE 1.79 SE No 0.000 No Precipitation 11/18/2020 02:19 PM 11/18/2020 02:24 PM 0.000 0.000 0.000 0.000 0.000 2.76 Clear
11/28/2020 10:14 PM 42.08 39.74 37.22 63.32 35.24 83.0 Not Reported 2.24 S 2.24 S 2.24 SE No 0.000 No Precipitation 11/18/2020 02:19 PM 11/18/2020 02:24 PM 0.000 0.000 0.000 0.000 0.000 2.43 Clear
11/28/2020 10:29 PM 41.00 39.02 36.68 63.32 35.24 85.0 Not Reported 2.24 S 2.24 S 2.68 S No 0.000 No Precipitation 11/18/2020 02:19 PM 11/18/2020 02:24 PM 0.000 0.000 0.000 0.000 0.000 1.92 Clear
11/28/2020 10:44 PM 41.90 39.56 36.68 63.32 35.24 82.0 Not Reported 2.24 SE 2.46 SE 2.01 SE No 0.000 No Precipitation 11/18/2020 02:19 PM 11/18/2020 02:24 PM 0.000 0.000 0.000 0.000 0.000 2.35 Clear
11/28/2020 10:59 PM 40.10 38.30 36.14 63.32 35.24 86.0 Not Reported 2.24 SE 2.24 S 2.68 SE No 0.000 No Precipitation 11/18/2020 02:19 PM 11/18/2020 02:24 PM 0.000 0.000 0.000 0.000 0.000 2.37 Clear
11/28/2020 11:14 PM 40.82 38.66 35.96 63.32 35.24 83.0 Not Reported 2.24 SE 2.46 SE 2.91 SE No 0.000 No Precipitation 11/18/2020 02:19 PM 11/18/2020 02:24 PM 0.000 0.000 0.000 0.000 0.000 3.15 Clear
11/28/2020 11:29 PM 40.64 38.12 35.24 63.32 35.24 81.0 Not Reported 2.91 S 2.91 SE 2.46 S No 0.000 No Precipitation 11/18/2020 02:19 PM 11/18/2020 02:24 PM 0.000 0.000 0.000 0.000 0.000 2.71 Clear
11/28/2020 11:44 PM 40.10 37.94 35.24 63.32 35.24 83.0 Not Reported 2.91 S 2.91 SE 3.13 S No 0.000 No Precipitation 11/18/2020 02:19 PM 11/18/2020 02:24 PM 0.000 0.000 0.000 0.000 0.000 3.18 Clear
11/28/2020 11:59 PM 41.36 38.66 35.24 63.32 35.24 79.0 Not Reported 0.22 S 0.00 SE 3.13 S No 0.000 No Precipitation 11/18/2020 02:19 PM 11/18/2020 02:24 PM 0.000 0.000 0.000 0.000 0.000 3.72 Clear